createdAt,value
2018-02-07T00:00:00.120Z,0
2018-02-07T00:00:40.645Z,0
2018-02-07T00:01:21.184Z,0
2018-02-07T00:02:01.730Z,0
2018-02-07T00:02:42.330Z,0
2018-02-07T00:03:22.878Z,0
2018-02-07T00:04:03.459Z,0
2018-02-07T00:04:44.046Z,0
2018-02-07T00:05:24.589Z,0
2018-02-07T00:06:05.216Z,0
2018-02-07T00:06:45.743Z,0
2018-02-07T00:07:26.258Z,0
2018-02-07T00:08:06.781Z,0
2018-02-07T00:08:47.345Z,0
2018-02-07T00:09:27.908Z,0
2018-02-07T00:10:08.488Z,0
2018-02-07T00:10:49.095Z,0
2018-02-07T00:11:29.693Z,0
2018-02-07T00:12:10.265Z,0
2018-02-07T00:12:50.835Z,0
2018-02-07T00:13:31.442Z,0
2018-02-07T00:14:11.997Z,0
2018-02-07T00:14:52.558Z,0
2018-02-07T00:15:33.105Z,0
2018-02-07T00:16:13.761Z,0
2018-02-07T00:16:54.402Z,0
2018-02-07T00:17:34.928Z,0
2018-02-07T00:18:15.510Z,0
2018-02-07T00:18:56.122Z,0
2018-02-07T00:19:36.731Z,0
2018-02-07T00:20:17.355Z,0
2018-02-07T00:20:57.996Z,0
2018-02-07T00:21:38.570Z,0
2018-02-07T00:22:19.255Z,0
2018-02-07T00:22:59.843Z,0
2018-02-07T00:23:40.449Z,0
2018-02-07T00:24:21.006Z,0
2018-02-07T00:25:01.592Z,0
2018-02-07T00:25:42.164Z,0
2018-02-07T00:26:22.790Z,0
2018-02-07T00:27:03.304Z,0
2018-02-07T00:27:43.800Z,0
2018-02-07T00:28:24.393Z,0
2018-02-07T00:29:04.917Z,0
2018-02-07T00:29:45.622Z,0
2018-02-07T00:30:26.079Z,0
2018-02-07T00:31:06.737Z,0
2018-02-07T00:31:47.301Z,0
2018-02-07T00:32:28.014Z,0
2018-02-07T00:33:08.486Z,0
2018-02-07T00:33:49.069Z,0
2018-02-07T00:34:29.621Z,0
2018-02-07T00:35:10.165Z,0
2018-02-07T00:35:50.810Z,0
2018-02-07T00:36:31.335Z,0
2018-02-07T00:37:11.935Z,0
2018-02-07T00:37:52.496Z,0
2018-02-07T00:38:33.105Z,0
2018-02-07T00:39:13.679Z,0
2018-02-07T00:39:54.233Z,0
2018-02-07T00:40:34.832Z,0
2018-02-07T00:41:15.450Z,0
2018-02-07T00:41:55.998Z,0
2018-02-07T00:42:36.599Z,0
2018-02-07T00:43:17.183Z,0
2018-02-07T00:43:57.805Z,0
2018-02-07T00:44:38.374Z,0
2018-02-07T00:45:19.012Z,0
2018-02-07T00:45:59.583Z,0
2018-02-07T00:46:40.102Z,0
2018-02-07T00:47:20.653Z,0
2018-02-07T00:48:01.234Z,0
2018-02-07T00:48:41.756Z,0
2018-02-07T00:49:22.288Z,0
2018-02-07T00:50:02.864Z,0
2018-02-07T00:50:43.436Z,0
2018-02-07T00:51:24.001Z,0
2018-02-07T00:52:04.577Z,0
2018-02-07T00:52:45.117Z,0
2018-02-07T00:53:25.660Z,0
2018-02-07T00:54:06.245Z,0
2018-02-07T00:54:46.868Z,0
2018-02-07T00:55:27.420Z,0
2018-02-07T00:56:08.027Z,0
2018-02-07T00:56:48.589Z,0
2018-02-07T00:57:29.119Z,0
2018-02-07T00:58:09.653Z,0
2018-02-07T00:58:50.244Z,0
2018-02-07T00:59:30.803Z,0
2018-02-07T01:00:11.420Z,0
2018-02-07T01:00:52.039Z,0
2018-02-07T01:01:32.623Z,0
2018-02-07T01:02:13.220Z,0
2018-02-07T01:02:53.905Z,0
2018-02-07T01:03:34.439Z,0
2018-02-07T01:04:15.010Z,0
2018-02-07T01:04:55.619Z,0
2018-02-07T01:05:36.240Z,0
2018-02-07T01:06:16.850Z,0
2018-02-07T01:06:57.413Z,0
2018-02-07T01:07:38.011Z,0
2018-02-07T01:08:18.653Z,0
2018-02-07T01:08:59.224Z,0
2018-02-07T01:09:39.766Z,0
2018-02-07T01:10:20.345Z,0
2018-02-07T01:11:00.875Z,0
2018-02-07T01:11:41.447Z,0
2018-02-07T01:12:22.075Z,0
2018-02-07T01:13:02.623Z,0
2018-02-07T01:13:43.214Z,0
2018-02-07T01:14:23.764Z,0
2018-02-07T01:15:04.320Z,0
2018-02-07T01:15:44.963Z,0
2018-02-07T01:16:25.513Z,0
2018-02-07T01:17:06.070Z,0
2018-02-07T01:17:46.613Z,0
2018-02-07T01:18:27.171Z,0
2018-02-07T01:19:07.774Z,0
2018-02-07T01:19:48.317Z,0
2018-02-07T01:20:28.904Z,0
2018-02-07T01:21:09.488Z,0
2018-02-07T01:21:50.032Z,0
2018-02-07T01:22:30.568Z,0
2018-02-07T01:23:11.200Z,0
2018-02-07T01:23:51.761Z,0
2018-02-07T01:24:32.337Z,0
2018-02-07T01:25:12.930Z,0
2018-02-07T01:25:53.566Z,0
2018-02-07T01:26:34.121Z,0
2018-02-07T01:27:14.716Z,0
2018-02-07T01:27:55.301Z,0
2018-02-07T01:28:35.918Z,0
2018-02-07T01:29:16.607Z,0
2018-02-07T01:29:57.137Z,0
2018-02-07T01:30:37.690Z,0
2018-02-07T01:31:18.305Z,0
2018-02-07T01:31:58.876Z,0
2018-02-07T01:32:39.427Z,0
2018-02-07T01:33:19.970Z,0
2018-02-07T01:34:00.510Z,0
2018-02-07T01:34:41.124Z,0
2018-02-07T01:35:21.692Z,0
2018-02-07T01:36:02.240Z,0
2018-02-07T01:36:42.780Z,0
2018-02-07T01:37:23.346Z,0
2018-02-07T01:38:03.924Z,0
2018-02-07T01:38:44.504Z,0
2018-02-07T01:39:25.076Z,0
2018-02-07T01:40:05.651Z,0
2018-02-07T01:40:46.265Z,0
2018-02-07T01:41:26.813Z,0
2018-02-07T01:42:07.373Z,0
2018-02-07T01:42:47.985Z,0
2018-02-07T01:43:28.556Z,0
2018-02-07T01:44:09.118Z,0
2018-02-07T01:44:49.642Z,0
2018-02-07T01:45:30.178Z,0
2018-02-07T01:46:10.781Z,0
2018-02-07T01:46:51.362Z,0
2018-02-07T01:47:31.938Z,0
2018-02-07T01:48:12.639Z,0
2018-02-07T01:48:53.205Z,0
2018-02-07T01:49:33.783Z,0
2018-02-07T01:50:14.335Z,0
2018-02-07T01:50:54.852Z,0
2018-02-07T01:51:35.483Z,0
2018-02-07T01:52:16.087Z,0
2018-02-07T01:52:56.713Z,0
2018-02-07T01:53:37.260Z,0
2018-02-07T01:54:17.829Z,0
2018-02-07T01:54:58.481Z,0
2018-02-07T01:55:39.059Z,0
2018-02-07T01:56:19.629Z,0
2018-02-07T01:57:00.227Z,0
2018-02-07T01:57:40.805Z,0
2018-02-07T01:58:21.369Z,0
2018-02-07T01:59:01.919Z,0
2018-02-07T01:59:42.512Z,0
2018-02-07T02:00:23.071Z,0
2018-02-07T02:01:03.636Z,0
2018-02-07T02:01:44.175Z,0
2018-02-07T02:02:24.799Z,0
2018-02-07T02:03:05.381Z,0
2018-02-07T02:03:45.939Z,0
2018-02-07T02:04:26.467Z,0
2018-02-07T02:05:07.102Z,0
2018-02-07T02:05:47.643Z,0
2018-02-07T02:06:28.258Z,0
2018-02-07T02:07:08.879Z,0
2018-02-07T02:07:49.500Z,0
2018-02-07T02:08:30.095Z,0
2018-02-07T02:09:10.626Z,0
2018-02-07T02:09:51.164Z,0
2018-02-07T02:10:31.711Z,0
2018-02-07T02:11:12.331Z,0
2018-02-07T02:11:52.944Z,0
2018-02-07T02:12:33.551Z,0
2018-02-07T02:13:14.102Z,0
2018-02-07T02:13:54.651Z,0
2018-02-07T02:14:35.283Z,0
2018-02-07T02:15:15.807Z,0
2018-02-07T02:15:56.374Z,0
2018-02-07T02:16:36.968Z,0
2018-02-07T02:17:17.471Z,0
2018-02-07T02:17:58.082Z,0
2018-02-07T02:18:38.627Z,0
2018-02-07T02:19:19.177Z,0
2018-02-07T02:19:59.798Z,0
2018-02-07T02:20:40.330Z,0
2018-02-07T02:21:20.906Z,0
2018-02-07T02:22:01.473Z,0
2018-02-07T02:22:42.074Z,0
2018-02-07T02:23:22.634Z,0
2018-02-07T02:24:03.167Z,0
2018-02-07T02:24:43.714Z,0
2018-02-07T02:25:24.308Z,0
2018-02-07T02:26:04.894Z,0
2018-02-07T02:26:45.452Z,0
2018-02-07T02:27:26.035Z,0
2018-02-07T02:28:06.546Z,0
2018-02-07T02:28:47.146Z,0
2018-02-07T02:29:27.714Z,0
2018-02-07T02:30:08.291Z,0
2018-02-07T02:30:48.847Z,0
2018-02-07T02:31:29.485Z,0
2018-02-07T02:32:10.034Z,0
2018-02-07T02:32:50.574Z,0
2018-02-07T02:33:31.159Z,0
2018-02-07T02:34:11.785Z,0
2018-02-07T02:34:52.346Z,0
2018-02-07T02:35:32.944Z,0
2018-02-07T02:36:13.553Z,0
2018-02-07T02:36:54.156Z,0
2018-02-07T02:37:34.732Z,0
2018-02-07T02:38:15.281Z,0
2018-02-07T02:38:55.843Z,0
2018-02-07T02:39:36.399Z,0
2018-02-07T02:40:16.979Z,0
2018-02-07T02:40:57.544Z,0
2018-02-07T02:41:38.077Z,0
2018-02-07T02:42:18.715Z,0
2018-02-07T02:42:59.258Z,0
2018-02-07T02:43:39.887Z,0
2018-02-07T02:44:20.474Z,0
2018-02-07T02:45:01.025Z,0
2018-02-07T02:45:41.574Z,0
2018-02-07T02:46:22.077Z,0
2018-02-07T02:47:02.633Z,0
2018-02-07T02:47:43.213Z,0
2018-02-07T02:48:23.767Z,0
2018-02-07T02:49:04.326Z,0
2018-02-07T02:49:44.863Z,0
2018-02-07T02:50:25.419Z,0
2018-02-07T02:51:05.973Z,0
2018-02-07T02:51:46.549Z,0
2018-02-07T02:52:27.121Z,0
2018-02-07T02:53:07.710Z,0
2018-02-07T02:53:48.389Z,0
2018-02-07T02:54:28.930Z,0
2018-02-07T02:55:09.482Z,0
2018-02-07T02:55:50.055Z,0
2018-02-07T02:56:30.623Z,0
2018-02-07T02:57:11.193Z,0
2018-02-07T02:57:51.804Z,0
2018-02-07T02:58:32.346Z,0
2018-02-07T02:59:12.948Z,0
2018-02-07T02:59:53.499Z,0
2018-02-07T03:00:34.047Z,0
2018-02-07T03:01:14.568Z,0
2018-02-07T03:01:55.173Z,0
2018-02-07T03:02:35.784Z,0
2018-02-07T03:03:16.322Z,0
2018-02-07T03:03:56.936Z,0
2018-02-07T03:04:37.478Z,0
2018-02-07T03:05:18.150Z,0
2018-02-07T03:05:58.745Z,0
2018-02-07T03:06:39.357Z,0
2018-02-07T03:07:19.906Z,0
2018-02-07T03:08:00.454Z,0
2018-02-07T03:08:41.013Z,0
2018-02-07T03:09:21.612Z,0
2018-02-07T03:10:02.202Z,0
2018-02-07T03:10:42.788Z,0
2018-02-07T03:11:23.427Z,0
2018-02-07T03:12:03.964Z,0
2018-02-07T03:12:44.521Z,0
2018-02-07T03:13:25.079Z,0
2018-02-07T03:14:05.624Z,0
2018-02-07T03:14:46.177Z,0
2018-02-07T03:15:26.750Z,0
2018-02-07T03:16:07.311Z,0
2018-02-07T03:16:47.950Z,0
2018-02-07T03:17:28.536Z,0
2018-02-07T03:18:09.115Z,0
2018-02-07T03:18:49.676Z,0
2018-02-07T03:19:30.212Z,0
2018-02-07T03:20:10.762Z,0
2018-02-07T03:20:51.369Z,0
2018-02-07T03:21:31.920Z,0
2018-02-07T03:22:12.500Z,0
2018-02-07T03:22:53.064Z,0
2018-02-07T03:23:33.658Z,0
2018-02-07T03:24:14.209Z,0
2018-02-07T03:24:54.824Z,0
2018-02-07T03:25:35.475Z,0
2018-02-07T03:26:16.009Z,0
2018-02-07T03:26:56.596Z,0
2018-02-07T03:27:37.100Z,0
2018-02-07T03:28:17.666Z,0
2018-02-07T03:28:58.216Z,0
2018-02-07T03:29:38.811Z,0
2018-02-07T03:30:19.357Z,0
2018-02-07T03:30:59.911Z,0
2018-02-07T03:31:40.443Z,0
2018-02-07T03:32:21.009Z,0
2018-02-07T03:33:01.646Z,0
2018-02-07T03:33:42.216Z,0
2018-02-07T03:34:22.760Z,0
2018-02-07T03:35:03.318Z,0
2018-02-07T03:35:44.003Z,0
2018-02-07T03:36:24.534Z,0
2018-02-07T03:37:05.094Z,0
2018-02-07T03:37:45.625Z,0
2018-02-07T03:38:26.178Z,0
2018-02-07T03:39:06.733Z,0
2018-02-07T03:39:47.285Z,0
2018-02-07T03:40:27.845Z,0
2018-02-07T03:41:08.404Z,0
2018-02-07T03:41:49.087Z,0
2018-02-07T03:42:29.634Z,0
2018-02-07T03:43:10.255Z,0
2018-02-07T03:43:50.854Z,0
2018-02-07T03:44:31.436Z,0
2018-02-07T03:45:11.994Z,0
2018-02-07T03:45:52.535Z,0
2018-02-07T03:46:33.093Z,0
2018-02-07T03:47:13.651Z,0
2018-02-07T03:47:54.214Z,0
2018-02-07T03:48:34.770Z,0
2018-02-07T03:49:15.303Z,0
2018-02-07T03:49:55.849Z,0
2018-02-07T03:50:36.402Z,0
2018-02-07T03:51:16.965Z,0
2018-02-07T03:51:57.534Z,0
2018-02-07T03:52:38.058Z,0
2018-02-07T03:53:18.615Z,0
2018-02-07T03:53:59.161Z,0
2018-02-07T03:54:39.709Z,0
2018-02-07T03:55:20.291Z,0
2018-02-07T03:56:00.908Z,0
2018-02-07T03:56:41.474Z,0
2018-02-07T03:57:22.026Z,0
2018-02-07T03:58:02.573Z,0
2018-02-07T03:58:43.125Z,0
2018-02-07T03:59:23.711Z,0
2018-02-07T04:00:04.294Z,0
2018-02-07T04:00:44.876Z,0
2018-02-07T04:01:25.465Z,0
2018-02-07T04:02:06.041Z,0
2018-02-07T04:02:46.630Z,0
2018-02-07T04:03:27.188Z,0
2018-02-07T04:04:07.754Z,0
2018-02-07T04:04:48.308Z,0
2018-02-07T04:05:28.863Z,0
2018-02-07T04:06:09.417Z,0
2018-02-07T04:06:49.966Z,0
2018-02-07T04:07:30.536Z,0
2018-02-07T04:08:11.046Z,0
2018-02-07T04:08:51.621Z,0
2018-02-07T04:09:32.173Z,0
2018-02-07T04:10:12.726Z,0
2018-02-07T04:10:53.305Z,0
2018-02-07T04:11:33.843Z,0
2018-02-07T04:12:14.397Z,0
2018-02-07T04:12:54.967Z,0
2018-02-07T04:13:35.507Z,0
2018-02-07T04:14:16.136Z,0
2018-02-07T04:14:56.749Z,0
2018-02-07T04:15:37.318Z,0
2018-02-07T04:16:17.867Z,0
2018-02-07T04:16:58.457Z,0
2018-02-07T04:17:39.081Z,0
2018-02-07T04:18:19.622Z,0
2018-02-07T04:19:00.189Z,0
2018-02-07T04:19:40.744Z,0
2018-02-07T04:20:21.315Z,0
2018-02-07T04:21:01.870Z,0
2018-02-07T04:21:42.406Z,0
2018-02-07T04:22:22.983Z,0
2018-02-07T04:23:03.548Z,0
2018-02-07T04:23:44.163Z,0
2018-02-07T04:24:24.687Z,0
2018-02-07T04:25:05.301Z,0
2018-02-07T04:25:45.861Z,0
2018-02-07T04:26:26.428Z,0
2018-02-07T04:27:06.972Z,0
2018-02-07T04:27:47.592Z,0
2018-02-07T04:28:28.194Z,0
2018-02-07T04:29:08.711Z,0
2018-02-07T04:29:49.284Z,0
2018-02-07T04:30:29.836Z,0
2018-02-07T04:31:10.415Z,0
2018-02-07T04:31:51.004Z,0
2018-02-07T04:32:31.527Z,0
2018-02-07T04:33:12.081Z,0
2018-02-07T04:33:52.668Z,0
2018-02-07T04:34:33.229Z,0
2018-02-07T04:35:13.784Z,0
2018-02-07T04:35:54.335Z,0
2018-02-07T04:36:34.929Z,0
2018-02-07T04:37:15.490Z,0
2018-02-07T04:37:56.040Z,0
2018-02-07T04:38:36.668Z,0
2018-02-07T04:39:17.274Z,0
2018-02-07T04:39:57.848Z,0
2018-02-07T04:40:38.392Z,0
2018-02-07T04:41:18.956Z,0
2018-02-07T04:41:59.499Z,0
2018-02-07T04:42:40.208Z,0
2018-02-07T04:43:20.771Z,0
2018-02-07T04:44:01.392Z,0
2018-02-07T04:44:41.919Z,0
2018-02-07T04:45:22.471Z,0
2018-02-07T04:46:03.025Z,0
2018-02-07T04:46:43.570Z,0
2018-02-07T04:47:24.142Z,0
2018-02-07T04:48:04.710Z,0
2018-02-07T04:48:45.352Z,0
2018-02-07T04:49:25.957Z,0
2018-02-07T04:50:06.609Z,0
2018-02-07T04:50:47.174Z,0
2018-02-07T04:51:27.742Z,0
2018-02-07T04:52:08.367Z,0
2018-02-07T04:52:48.914Z,0
2018-02-07T04:53:29.470Z,0
2018-02-07T04:54:10.053Z,0
2018-02-07T04:54:50.593Z,0
2018-02-07T04:55:31.170Z,0
2018-02-07T04:56:11.730Z,0
2018-02-07T04:56:52.288Z,0
2018-02-07T04:57:32.847Z,0
2018-02-07T04:58:13.397Z,0
2018-02-07T04:58:53.945Z,0
2018-02-07T04:59:34.503Z,0
2018-02-07T05:00:15.038Z,0
2018-02-07T05:00:55.601Z,0
2018-02-07T05:01:36.128Z,0
2018-02-07T05:02:16.702Z,0
2018-02-07T05:02:57.245Z,0
2018-02-07T05:03:37.808Z,0
2018-02-07T05:04:18.365Z,0
2018-02-07T05:04:58.899Z,0
2018-02-07T05:05:39.442Z,0
2018-02-07T05:06:19.993Z,0
2018-02-07T05:07:00.548Z,0
2018-02-07T05:07:41.097Z,0
2018-02-07T05:08:21.664Z,0
2018-02-07T05:09:02.218Z,0
2018-02-07T05:09:42.773Z,0
2018-02-07T05:10:23.319Z,0
2018-02-07T05:11:03.874Z,0
2018-02-07T05:11:44.421Z,0
2018-02-07T05:12:24.976Z,0
2018-02-07T05:13:05.515Z,0
2018-02-07T05:13:46.089Z,0
2018-02-07T05:14:26.648Z,0
2018-02-07T05:15:07.205Z,0
2018-02-07T05:15:47.766Z,0
2018-02-07T05:16:28.347Z,0
2018-02-07T05:17:08.882Z,0
2018-02-07T05:17:49.423Z,0
2018-02-07T05:18:29.983Z,0
2018-02-07T05:19:10.562Z,0
2018-02-07T05:19:51.097Z,0
2018-02-07T05:20:31.661Z,0
2018-02-07T05:21:12.211Z,0
2018-02-07T05:21:52.749Z,0
2018-02-07T05:22:33.281Z,0
2018-02-07T05:23:13.848Z,0
2018-02-07T05:23:54.383Z,0
2018-02-07T05:24:34.952Z,0
2018-02-07T05:25:15.499Z,0
2018-02-07T05:25:56.045Z,0
2018-02-07T05:26:36.608Z,0
2018-02-07T05:27:17.153Z,0
2018-02-07T05:27:57.849Z,0
2018-02-07T05:28:38.341Z,0
2018-02-07T05:29:18.913Z,0
2018-02-07T05:29:59.460Z,0
2018-02-07T05:30:40.018Z,0
2018-02-07T05:31:20.586Z,0
2018-02-07T05:32:01.122Z,0
2018-02-07T05:32:41.673Z,0
2018-02-07T05:33:22.231Z,0
2018-02-07T05:34:02.785Z,0
2018-02-07T05:34:43.421Z,0
2018-02-07T05:35:23.981Z,0
2018-02-07T05:36:04.553Z,0
2018-02-07T05:36:45.101Z,0
2018-02-07T05:37:25.957Z,0
2018-02-07T05:38:06.769Z,0
2018-02-07T05:38:47.339Z,0
2018-02-07T05:39:28.326Z,0
2018-02-07T05:40:08.902Z,0
2018-02-07T05:40:49.404Z,0
2018-02-07T05:41:29.974Z,0
2018-02-07T05:42:10.530Z,0
2018-02-07T05:42:51.096Z,0
2018-02-07T05:43:31.645Z,0
2018-02-07T05:44:12.196Z,0
2018-02-07T05:44:52.764Z,0
2018-02-07T05:45:33.350Z,0
2018-02-07T05:46:13.935Z,0
2018-02-07T05:46:54.452Z,0
2018-02-07T05:47:35.003Z,0
2018-02-07T05:48:15.553Z,0
2018-02-07T05:48:56.103Z,0
2018-02-07T05:49:36.685Z,0
2018-02-07T05:50:17.222Z,0
2018-02-07T05:50:57.758Z,0
2018-02-07T05:51:38.308Z,0
2018-02-07T05:52:18.852Z,0
2018-02-07T05:52:59.401Z,0
2018-02-07T05:53:39.950Z,0
2018-02-07T05:54:20.497Z,0
2018-02-07T05:55:01.073Z,0
2018-02-07T05:55:41.625Z,0
2018-02-07T05:56:22.219Z,0
2018-02-07T05:57:02.799Z,0
2018-02-07T05:57:43.458Z,0
2018-02-07T05:58:24.008Z,0
2018-02-07T05:59:04.557Z,0
2018-02-07T05:59:45.109Z,0
2018-02-07T06:00:25.662Z,0
2018-02-07T06:01:06.226Z,0
2018-02-07T06:01:46.789Z,0
2018-02-07T06:02:27.336Z,0
2018-02-07T06:03:07.907Z,0
2018-02-07T06:03:48.433Z,0
2018-02-07T06:04:28.980Z,0
2018-02-07T06:05:09.568Z,0
2018-02-07T06:05:50.094Z,0
2018-02-07T06:06:30.634Z,0
2018-02-07T06:07:11.200Z,0
2018-02-07T06:07:51.745Z,0
2018-02-07T06:08:32.276Z,0
2018-02-07T06:09:13.103Z,0
2018-02-07T06:09:53.741Z,0
2018-02-07T06:10:34.299Z,0
2018-02-07T06:11:14.924Z,0
2018-02-07T06:11:55.461Z,0
2018-02-07T06:12:36.010Z,0
2018-02-07T06:13:16.555Z,0
2018-02-07T06:13:57.119Z,0
2018-02-07T06:14:37.661Z,0
2018-02-07T06:15:18.210Z,0
2018-02-07T06:15:58.773Z,0
2018-02-07T06:16:39.321Z,0
2018-02-07T06:17:19.946Z,0
2018-02-07T06:18:00.541Z,0
2018-02-07T06:18:41.116Z,0
2018-02-07T06:19:21.674Z,0
2018-02-07T06:20:02.226Z,0
2018-02-07T06:20:42.780Z,0
2018-02-07T06:21:23.332Z,0
2018-02-07T06:22:03.901Z,0
2018-02-07T06:22:44.458Z,0
2018-02-07T06:23:25.013Z,0
2018-02-07T06:24:05.549Z,0
2018-02-07T06:24:46.121Z,0
2018-02-07T06:25:26.644Z,0
2018-02-07T06:26:07.253Z,0
2018-02-07T06:26:47.849Z,0
2018-02-07T06:27:28.439Z,0
2018-02-07T06:28:08.977Z,0
2018-02-07T06:28:49.527Z,0
2018-02-07T06:29:30.074Z,0
2018-02-07T06:30:10.702Z,0
2018-02-07T06:30:51.256Z,0
2018-02-07T06:31:32.134Z,0
2018-02-07T06:32:12.843Z,0
2018-02-07T06:32:53.386Z,0
2018-02-07T06:33:34.005Z,0
2018-02-07T06:34:14.557Z,0
2018-02-07T06:34:55.101Z,0
2018-02-07T06:35:35.662Z,0
2018-02-07T06:36:16.214Z,0
2018-02-07T06:36:56.754Z,0
2018-02-07T06:37:37.333Z,0
2018-02-07T06:38:17.881Z,0
2018-02-07T06:38:58.505Z,0
2018-02-07T06:39:39.067Z,0
2018-02-07T06:40:19.630Z,0
2018-02-07T06:41:00.167Z,0
2018-02-07T06:41:40.729Z,0
2018-02-07T06:42:21.259Z,0
2018-02-07T06:43:01.792Z,0
2018-02-07T06:43:42.357Z,0
2018-02-07T06:44:22.915Z,0
2018-02-07T06:45:03.476Z,0
2018-02-07T06:45:44.066Z,0
2018-02-07T06:46:24.893Z,0
2018-02-07T06:47:05.443Z,0
2018-02-07T06:47:46.002Z,0
2018-02-07T06:48:26.694Z,0
2018-02-07T06:49:07.391Z,0
2018-02-07T06:49:47.985Z,0
2018-02-07T06:50:28.547Z,0
2018-02-07T06:51:09.091Z,0
2018-02-07T06:51:49.648Z,0
2018-02-07T06:52:30.225Z,5
2018-02-07T06:53:10.791Z,5
2018-02-07T06:53:51.331Z,5
2018-02-07T06:54:31.873Z,5
2018-02-07T06:55:12.435Z,5
2018-02-07T06:55:52.999Z,5
2018-02-07T06:56:33.564Z,5
2018-02-07T06:57:14.105Z,5
2018-02-07T06:57:54.679Z,5
2018-02-07T06:58:35.222Z,5
2018-02-07T06:59:15.965Z,5
2018-02-07T06:59:56.327Z,5
2018-02-07T07:00:36.879Z,5
2018-02-07T07:01:17.433Z,5
2018-02-07T07:01:58.008Z,5
2018-02-07T07:02:38.632Z,5
2018-02-07T07:03:19.188Z,10
2018-02-07T07:03:59.725Z,10
2018-02-07T07:04:40.270Z,10
2018-02-07T07:05:20.845Z,10
2018-02-07T07:06:01.402Z,10
2018-02-07T07:06:41.958Z,10
2018-02-07T07:07:22.594Z,10
2018-02-07T07:08:03.176Z,10
2018-02-07T07:08:43.915Z,10
2018-02-07T07:09:24.617Z,10
2018-02-07T07:10:05.209Z,15
2018-02-07T07:10:45.757Z,15
2018-02-07T07:11:26.380Z,15
2018-02-07T07:12:07.402Z,15
2018-02-07T07:12:47.961Z,15
2018-02-07T07:13:28.485Z,15
2018-02-07T07:14:09.022Z,15
2018-02-07T07:14:49.577Z,15
2018-02-07T07:15:30.128Z,15
2018-02-07T07:16:10.681Z,15
2018-02-07T07:16:51.257Z,15
2018-02-07T07:17:31.849Z,10
2018-02-07T07:18:12.404Z,10
2018-02-07T07:18:52.950Z,10
2018-02-07T07:19:33.577Z,15
2018-02-07T07:20:14.163Z,15
2018-02-07T07:20:54.689Z,15
2018-02-07T07:21:35.336Z,15
2018-02-07T07:22:16.163Z,15
2018-02-07T07:22:56.739Z,15
2018-02-07T07:23:37.407Z,15
2018-02-07T07:24:18.010Z,15
2018-02-07T07:24:58.592Z,15
2018-02-07T07:25:39.223Z,15
2018-02-07T07:26:19.785Z,15
2018-02-07T07:27:00.328Z,15
2018-02-07T07:27:40.885Z,15
2018-02-07T07:28:21.419Z,15
2018-02-07T07:29:01.971Z,20
2018-02-07T07:29:42.537Z,20
2018-02-07T07:30:23.097Z,20
2018-02-07T07:31:03.697Z,20
2018-02-07T07:31:44.307Z,20
2018-02-07T07:32:24.915Z,25
2018-02-07T07:33:05.477Z,25
2018-02-07T07:33:46.032Z,25
2018-02-07T07:34:26.600Z,25
2018-02-07T07:35:07.133Z,30
2018-02-07T07:35:47.683Z,30
2018-02-07T07:36:28.286Z,30
2018-02-07T07:37:08.839Z,30
2018-02-07T07:37:49.433Z,30
2018-02-07T07:38:30.009Z,30
2018-02-07T07:39:10.607Z,30
2018-02-07T07:39:51.151Z,30
2018-02-07T07:40:31.734Z,35
2018-02-07T07:41:12.417Z,35
2018-02-07T07:41:52.999Z,35
2018-02-07T07:42:33.571Z,35
2018-02-07T07:43:14.145Z,30
2018-02-07T07:43:54.665Z,30
2018-02-07T07:44:35.191Z,35
2018-02-07T07:45:15.749Z,35
2018-02-07T07:45:56.374Z,35
2018-02-07T07:46:36.934Z,35
2018-02-07T07:47:17.486Z,35
2018-02-07T07:47:58.072Z,30
2018-02-07T07:48:38.690Z,30
2018-02-07T07:49:19.257Z,30
2018-02-07T07:49:59.806Z,30
2018-02-07T07:50:40.416Z,30
2018-02-07T07:51:20.976Z,30
2018-02-07T07:52:01.517Z,30
2018-02-07T07:52:42.068Z,30
2018-02-07T07:53:22.638Z,30
2018-02-07T07:54:03.182Z,30
2018-02-07T07:54:43.737Z,30
2018-02-07T07:55:24.310Z,30
2018-02-07T07:56:04.842Z,30
2018-02-07T07:56:45.413Z,30
2018-02-07T07:57:25.944Z,30
2018-02-07T07:58:06.492Z,30
2018-02-07T07:58:47.069Z,30
2018-02-07T07:59:27.628Z,30
2018-02-07T08:00:08.177Z,35
2018-02-07T08:00:48.755Z,35
2018-02-07T08:01:29.286Z,35
2018-02-07T08:02:09.825Z,35
2018-02-07T08:02:50.376Z,35
2018-02-07T08:03:30.941Z,35
2018-02-07T08:04:11.518Z,35
2018-02-07T08:04:52.063Z,35
2018-02-07T08:05:32.631Z,35
2018-02-07T08:06:13.185Z,35
2018-02-07T08:06:53.755Z,35
2018-02-07T08:07:34.319Z,35
2018-02-07T08:08:14.868Z,35
2018-02-07T08:08:55.420Z,35
2018-02-07T08:09:35.974Z,35
2018-02-07T08:10:16.518Z,35
2018-02-07T08:10:57.058Z,35
2018-02-07T08:11:37.618Z,35
2018-02-07T08:12:18.196Z,35
2018-02-07T08:12:58.809Z,35
2018-02-07T08:13:39.328Z,35
2018-02-07T08:14:19.897Z,35
2018-02-07T08:15:00.446Z,35
2018-02-07T08:15:41.019Z,35
2018-02-07T08:16:21.622Z,35
2018-02-07T08:17:02.168Z,35
2018-02-07T08:17:42.718Z,35
2018-02-07T08:18:23.250Z,35
2018-02-07T08:19:03.821Z,35
2018-02-07T08:19:44.371Z,35
2018-02-07T08:20:24.916Z,35
2018-02-07T08:21:05.469Z,35
2018-02-07T08:21:46.032Z,35
2018-02-07T08:22:26.613Z,35
2018-02-07T08:23:07.170Z,35
2018-02-07T08:23:47.777Z,35
2018-02-07T08:24:28.398Z,40
2018-02-07T08:25:08.916Z,40
2018-02-07T08:25:49.460Z,40
2018-02-07T08:26:30.007Z,40
2018-02-07T08:27:10.570Z,40
2018-02-07T08:27:51.136Z,40
2018-02-07T08:28:31.702Z,40
2018-02-07T08:29:12.252Z,40
2018-02-07T08:29:52.814Z,40
2018-02-07T08:30:33.366Z,40
2018-02-07T08:31:13.936Z,40
2018-02-07T08:31:54.478Z,40
2018-02-07T08:32:35.037Z,40
2018-02-07T08:33:15.585Z,40
2018-02-07T08:33:56.133Z,40
2018-02-07T08:34:36.678Z,40
2018-02-07T08:35:17.232Z,40
2018-02-07T08:35:57.785Z,40
2018-02-07T08:36:38.340Z,40
2018-02-07T08:37:18.986Z,40
2018-02-07T08:37:59.541Z,40
2018-02-07T08:38:40.109Z,40
2018-02-07T08:39:20.648Z,40
2018-02-07T08:40:01.202Z,40
2018-02-07T08:40:41.761Z,40
2018-02-07T08:41:22.287Z,40
2018-02-07T08:42:02.863Z,40
2018-02-07T08:42:43.417Z,40
2018-02-07T08:43:24.004Z,40
2018-02-07T08:44:04.570Z,40
2018-02-07T08:44:45.139Z,40
2018-02-07T08:45:25.840Z,40
2018-02-07T08:46:06.424Z,40
2018-02-07T08:46:46.978Z,45
2018-02-07T08:47:27.534Z,45
2018-02-07T08:48:08.117Z,45
2018-02-07T08:48:48.664Z,45
2018-02-07T08:49:29.221Z,45
2018-02-07T08:50:09.773Z,45
2018-02-07T08:50:50.335Z,45
2018-02-07T08:51:30.889Z,50
2018-02-07T08:52:11.438Z,50
2018-02-07T08:52:51.995Z,50
2018-02-07T08:53:32.540Z,50
2018-02-07T08:54:13.097Z,50
2018-02-07T08:54:53.666Z,55
2018-02-07T08:55:34.238Z,55
2018-02-07T08:56:14.777Z,55
2018-02-07T08:56:55.329Z,55
2018-02-07T08:57:35.896Z,55
2018-02-07T08:58:16.455Z,55
2018-02-07T08:58:56.993Z,60
2018-02-07T08:59:37.553Z,60
2018-02-07T09:00:18.100Z,60
2018-02-07T09:00:58.653Z,60
2018-02-07T09:01:39.198Z,60
2018-02-07T09:02:19.766Z,60
2018-02-07T09:03:00.368Z,60
2018-02-07T09:03:40.955Z,60
2018-02-07T09:04:21.486Z,55
2018-02-07T09:05:02.026Z,55
2018-02-07T09:05:42.591Z,55
2018-02-07T09:06:23.136Z,55
2018-02-07T09:07:03.705Z,55
2018-02-07T09:07:44.250Z,55
2018-02-07T09:08:24.853Z,55
2018-02-07T09:09:05.421Z,55
2018-02-07T09:09:45.983Z,55
2018-02-07T09:10:26.532Z,60
2018-02-07T09:11:07.079Z,60
2018-02-07T09:11:47.697Z,60
2018-02-07T09:12:28.254Z,60
2018-02-07T09:13:08.841Z,60
2018-02-07T09:13:49.390Z,60
2018-02-07T09:14:29.926Z,60
2018-02-07T09:15:10.478Z,60
2018-02-07T09:15:51.025Z,60
2018-02-07T09:16:31.578Z,60
2018-02-07T09:17:12.132Z,60
2018-02-07T09:17:52.678Z,60
2018-02-07T09:18:33.239Z,60
2018-02-07T09:19:13.804Z,60
2018-02-07T09:19:54.356Z,60
2018-02-07T09:20:34.937Z,60
2018-02-07T09:21:15.452Z,60
2018-02-07T09:21:56.005Z,60
2018-02-07T09:22:36.555Z,60
2018-02-07T09:23:17.099Z,60
2018-02-07T09:23:57.652Z,60
2018-02-07T09:24:38.208Z,60
2018-02-07T09:25:18.756Z,65
2018-02-07T09:25:59.346Z,65
2018-02-07T09:26:39.904Z,65
2018-02-07T09:27:20.441Z,65
2018-02-07T09:28:01.015Z,65
2018-02-07T09:28:41.573Z,65
2018-02-07T09:29:22.130Z,65
2018-02-07T09:30:02.685Z,65
2018-02-07T09:30:43.249Z,70
2018-02-07T09:31:23.804Z,70
2018-02-07T09:32:04.357Z,70
2018-02-07T09:32:44.900Z,70
2018-02-07T09:33:25.453Z,75
2018-02-07T09:34:06.008Z,75
2018-02-07T09:34:46.756Z,80
2018-02-07T09:35:27.304Z,80
2018-02-07T09:36:07.862Z,85
2018-02-07T09:36:48.420Z,85
2018-02-07T09:37:28.976Z,85
2018-02-07T09:38:09.504Z,90
2018-02-07T09:38:50.059Z,90
2018-02-07T09:39:30.648Z,95
2018-02-07T09:40:11.177Z,95
2018-02-07T09:40:51.731Z,95
2018-02-07T09:41:32.292Z,95
2018-02-07T09:42:12.834Z,100
2018-02-07T09:42:53.387Z,95
2018-02-07T09:43:33.951Z,100
2018-02-07T09:44:14.519Z,100
2018-02-07T09:44:55.062Z,105
2018-02-07T09:45:35.600Z,105
2018-02-07T09:46:16.153Z,105
2018-02-07T09:46:56.701Z,110
2018-02-07T09:47:37.259Z,110
2018-02-07T09:48:17.800Z,110
2018-02-07T09:48:58.360Z,110
2018-02-07T09:49:38.906Z,115
2018-02-07T09:50:19.461Z,115
2018-02-07T09:51:00.031Z,120
2018-02-07T09:51:40.593Z,120
2018-02-07T09:52:21.128Z,120
2018-02-07T09:53:01.692Z,120